Time;durP1;ratioP1;P1;durP2;ratioP2;P2;SDS_P1;SDS_P2;PMS_P1;PMS_P2;Temp;Humidity;BMP_temperature;BMP_pressure;BME280_temperature;BME280_humidity;BME280_pressure;Samples;Min_cycle;Max_cycle;Signal;HPM_P1;HPM_P2
2021/06/16 00:01:06;;;;;;;10.15;6.40;;;;;;;26.44;49.06;100984.59;4839560;29;20062;-59
2021/06/16 00:03:33;;;;;;;12.95;6.40;;;;;;;26.52;48.56;100989.78;4837773;29;20069;-59
2021/06/16 00:06:02;;;;;;;13.23;6.10;;;;;;;26.61;48.65;100986.47;4837924;29;20061;-62
2021/06/16 00:08:30;;;;;;;12.00;6.50;;;;;;;26.62;48.14;100986.06;4837941;29;20057;-63
2021/06/16 00:10:57;;;;;;;17.98;6.82;;;;;;;26.72;47.80;100984.41;4837933;29;20054;-66
2021/06/16 00:13:27;;;;;;;13.00;6.55;;;;;;;26.43;48.75;100978.13;4838545;29;20053;-63
2021/06/16 00:15:54;;;;;;;10.43;5.68;;;;;;;26.41;49.01;100976.97;4837386;29;20081;-61
2021/06/16 00:18:21;;;;;;;10.18;6.60;;;;;;;26.13;49.35;100985.63;4837905;29;20074;-63
2021/06/16 00:25:17;;;;;;;10.70;6.35;;;;;;;26.22;48.92;100966.19;4837955;29;20450;-70
2021/06/16 00:27:44;;;;;;;13.05;5.80;;;;;;;26.20;49.45;100975.09;4838001;29;20058;-66
2021/06/16 00:30:13;;;;;;;11.02;6.55;;;;;;;26.43;48.32;100966.03;4901146;29;20054;-68
2021/06/16 00:32:43;;;;;;;10.45;6.50;;;;;;;26.53;48.49;100976.47;4900520;29;20069;-71
2021/06/16 00:39:36;;;;;;;11.18;5.45;;;;;;;26.45;48.46;100964.41;4838373;29;20494;-65
2021/06/16 00:42:03;;;;;;;10.52;6.57;;;;;;;26.63;48.23;100962.25;4840894;29;20078;-67
2021/06/16 00:44:31;;;;;;;11.18;6.70;;;;;;;26.30;49.59;100964.91;4824121;29;20131;-62
2021/06/16 00:46:58;;;;;;;13.35;7.00;;;;;;;25.82;51.74;100967.59;4840485;29;20050;-63
2021/06/16 00:53:52;;;;;;;11.73;7.15;;;;;;;25.20;54.49;100966.56;4840876;29;20046;-63
2021/06/16 00:56:20;;;;;;;13.55;7.13;;;;;;;25.59;53.13;100956.81;4841150;29;20053;-62
2021/06/16 00:58:47;;;;;;;11.68;7.22;;;;;;;25.24;54.32;100965.38;4839238;29;20054;-64
2021/06/16 01:01:19;;;;;;;11.13;7.00;;;;;;;25.72;52.79;100957.16;4840733;29;20056;-60
2021/06/16 01:03:59;;;;;;;11.30;6.75;;;;;;;25.29;54.35;100956.50;4904179;29;20069;-60
2021/06/16 01:10:50;;;;;;;10.57;7.05;;;;;;;25.27;54.82;100946.81;4841680;29;20058;-62
2021/06/16 01:13:38;;;;;;;9.48;7.40;;;;;;;24.91;55.89;100946.13;4838766;29;20058;-65
2021/06/16 01:16:42;;;;;;;11.55;7.25;;;;;;;24.79;56.16;100949.34;4887854;29;20126;-62
2021/06/16 01:23:15;;;;;;;10.68;7.28;;;;;;;24.52;57.53;100931.22;4896049;28;20052;-61
2021/06/16 01:25:58;;;;;;;13.88;7.43;;;;;;;24.68;56.79;100936.44;4881531;29;20064;-63
2021/06/16 01:28:30;;;;;;;15.23;7.78;;;;;;;24.62;56.81;100933.22;4896260;29;20048;-62
2021/06/16 01:30:58;;;;;;;10.95;7.70;;;;;;;24.67;56.85;100934.84;4896493;29;20177;-62
2021/06/16 01:33:26;;;;;;;11.63;7.93;;;;;;;24.43;57.82;100930.78;4896931;29;20430;-65
2021/06/16 01:40:30;;;;;;;12.13;8.27;;;;;;;24.24;58.55;100932.00;4877554;29;20052;-69
2021/06/16 01:42:58;;;;;;;13.75;8.05;;;;;;;24.18;58.93;100924.38;4877726;29;20097;-70
2021/06/16 01:45:29;;;;;;;12.60;8.02;;;;;;;24.41;58.12;100930.38;4877849;29;20126;-70
2021/06/16 01:47:58;;;;;;;17.33;8.02;;;;;;;24.73;57.13;100919.16;4896415;29;20049;-68
2021/06/16 01:50:26;;;;;;;12.18;7.80;;;;;;;24.51;57.99;100921.16;4864736;29;20053;-71
2021/06/16 01:52:55;;;;;;;13.95;8.32;;;;;;;24.53;57.54;100919.53;4896010;29;20048;-68
2021/06/16 01:55:22;;;;;;;10.73;8.15;;;;;;;24.33;58.16;100920.34;4867262;29;20057;-65
2021/06/16 01:57:54;;;;;;;10.98;7.10;;;;;;;24.30;58.41;100919.13;4822877;29;20058;-62
2021/06/16 02:00:22;;;;;;;12.00;7.38;;;;;;;24.30;58.50;100912.72;4902374;29;20154;-61
2021/06/16 02:02:50;;;;;;;12.30;8.05;;;;;;;24.61;57.73;100911.91;4841088;29;20073;-66
2021/06/16 02:05:19;;;;;;;11.43;7.78;;;;;;;24.58;57.66;100911.91;4838783;29;20061;-62
2021/06/16 02:07:51;;;;;;;11.18;7.45;;;;;;;24.53;57.53;100908.25;4840034;29;20061;-60
2021/06/16 02:10:24;;;;;;;11.60;7.07;;;;;;;24.99;56.24;100910.25;4838439;29;20529;-61
2021/06/16 02:12:54;;;;;;;12.00;7.85;;;;;;;24.56;57.40;100909.50;4839788;29;20062;-61
2021/06/16 02:15:22;;;;;;;11.40;7.78;;;;;;;24.80;56.79;100908.69;4838837;29;20060;-63
2021/06/16 02:17:50;;;;;;;12.00;7.80;;;;;;;24.37;58.27;100899.41;4901998;29;20058;-60
2021/06/16 02:20:20;;;;;;;10.85;7.00;;;;;;;24.55;57.88;100902.22;4839448;29;20525;-62
2021/06/16 02:22:49;;;;;;;12.98;8.30;;;;;;;24.41;57.76;100900.22;4840503;29;20069;-61
2021/06/16 02:25:17;;;;;;;13.15;8.10;;;;;;;24.49;57.76;100901.84;4852877;29;20049;-61
2021/06/16 02:27:44;;;;;;;12.63;7.82;;;;;;;24.96;56.31;100894.97;4838103;29;20064;-61
2021/06/16 02:30:12;;;;;;;12.90;7.97;;;;;;;24.64;56.88;100887.72;4839511;29;20344;-62
2021/06/16 02:32:40;;;;;;;12.57;7.72;;;;;;;24.21;58.57;100881.31;4839519;29;20064;-61
2021/06/16 02:35:08;;;;;;;13.93;8.43;;;;;;;24.15;59.06;100892.19;4839280;29;20058;-62
2021/06/16 02:42:15;;;;;;;;;;;;;;;23.63;60.93;100878.78;4841373;29;20105;-63
2021/06/16 02:44:43;;;;;;;13.73;8.18;;;;;;;23.46;61.71;100882.34;4838839;29;19925;-64
2021/06/16 02:47:12;;;;;;;13.65;8.10;;;;;;;23.71;60.79;100871.97;4839125;29;20046;-63
2021/06/16 02:49:53;;;;;;;12.52;8.10;;;;;;;23.60;60.95;100876.78;4840007;29;20058;-61
2021/06/16 02:52:22;;;;;;;13.02;8.60;;;;;;;23.72;60.71;100878.41;4839165;29;20057;-60
2021/06/16 02:54:57;;;;;;;12.07;7.95;;;;;;;24.04;59.82;100873.69;4837776;29;20061;-62
2021/06/16 02:57:26;;;;;;;13.38;8.10;;;;;;;24.08;59.18;100866.84;4838496;29;20065;-64
2021/06/16 02:59:54;;;;;;;12.90;8.40;;;;;;;23.93;60.11;100873.63;4899572;29;20054;-63
2021/06/16 03:02:23;;;;;;;13.50;8.45;;;;;;;23.80;60.22;100880.84;4901162;29;20050;-63
2021/06/16 03:04:51;;;;;;;14.97;8.00;;;;;;;24.04;60.09;100877.28;4837726;29;20046;-62
2021/06/16 03:07:20;;;;;;;15.13;8.57;;;;;;;24.20;nan;100869.25;4886118;29;20058;-60
2021/06/16 03:09:48;;;;;;;14.35;8.18;;;;;;;24.05;59.53;100876.09;4838141;29;20030;-62
2021/06/16 03:12:17;;;;;;;13.05;8.18;;;;;;;24.45;58.43;100870.06;4838905;29;20058;-61
2021/06/16 03:14:45;;;;;;;21.90;8.67;;;;;;;24.33;58.72;100869.66;4838973;29;20062;-63
2021/06/16 03:17:16;;;;;;;10.82;7.65;;;;;;;24.49;58.10;100870.06;4837352;29;20074;-64
2021/06/16 03:19:45;;;;;;;13.20;8.45;;;;;;;24.94;56.75;100859.94;4837656;29;20065;-67
2021/06/16 03:22:13;;;;;;;14.02;7.38;;;;;;;25.20;55.92;100870.72;4838201;29;20069;-64
2021/06/16 03:24:43;;;;;;;12.68;8.10;;;;;;;24.63;57.34;100863.59;4836983;29;20058;-65
2021/06/16 03:27:10;;;;;;;;;;;;;;;24.08;58.91;100858.38;4839105;29;20050;-61
2021/06/16 03:29:38;;;;;;;11.93;8.38;;;;;;;24.25;58.50;100866.03;4822248;29;19928;-61
2021/06/16 03:32:10;;;;;;;10.25;8.13;;;;;;;24.04;59.53;100866.03;4836731;29;20054;-61
2021/06/16 03:34:38;;;;;;;11.15;8.32;;;;;;;24.00;59.51;100867.22;4836477;29;20150;-61
2021/06/16 03:37:07;;;;;;;13.73;8.05;;;;;;;23.92;59.97;100869.19;4837107;29;20149;-64
2021/06/16 03:39:35;;;;;;;11.88;8.88;;;;;;;23.76;60.56;100868.78;4839473;29;20058;-62
2021/06/16 03:42:03;;;;;;;13.55;8.40;;;;;;;23.54;61.50;100869.13;4838477;29;20061;-62
2021/06/16 03:44:32;;;;;;;17.83;8.77;;;;;;;23.40;62.19;100870.69;4836926;29;20061;-62
2021/06/16 03:47:04;;;;;;;12.07;9.13;;;;;;;23.29;62.96;100869.03;4838451;29;20528;-62
2021/06/16 03:49:31;;;;;;;12.90;8.75;;;;;;;23.48;62.26;100870.72;4836912;29;20058;-64
2021/06/16 03:52:00;;;;;;;13.05;8.73;;;;;;;23.59;61.93;100869.53;4838308;29;20050;-61
2021/06/16 03:54:28;;;;;;;14.40;8.50;;;;;;;23.75;61.29;100867.16;4836776;29;20050;-63
2021/06/16 03:56:55;;;;;;;17.20;9.50;;;;;;;23.65;61.55;100861.50;4837941;29;20042;-62
2021/06/16 03:59:23;;;;;;;15.85;8.68;;;;;;;23.55;62.12;100859.47;4901297;29;20046;-69
2021/06/16 04:01:50;;;;;;;10.73;8.68;;;;;;;23.58;61.92;100855.88;4836925;29;20418;-70
2021/06/16 04:04:18;;;;;;;12.93;8.48;;;;;;;24.20;60.21;100855.19;4839287;29;20069;-72
2021/06/16 04:06:45;;;;;;;15.15;8.65;;;;;;;23.98;60.79;100850.72;4822065;29;20073;-64
2021/06/16 04:09:14;;;;;;;16.05;8.93;;;;;;;24.13;60.20;100855.16;4900376;29;20054;-66
2021/06/16 04:11:43;;;;;;;12.85;8.65;;;;;;;23.80;61.07;100855.50;4839449;29;20050;-69
2021/06/16 04:14:10;;;;;;;13.43;8.95;;;;;;;23.54;62.09;100855.84;4840048;29;20148;-66
2021/06/16 04:16:42;;;;;;;14.63;9.23;;;;;;;23.64;61.77;100863.50;4840708;29;20054;-68
2021/06/16 04:19:13;;;;;;;10.93;7.90;;;;;;;23.64;61.75;100865.53;4809895;29;20057;-70
2021/06/16 04:21:40;;;;;;;13.63;8.95;;;;;;;23.39;62.23;100857.84;4841174;29;20061;-69
2021/06/16 04:28:38;;;;;;;12.30;8.70;;;;;;;23.54;62.17;100857.88;4840977;29;20053;-68
2021/06/16 04:31:05;;;;;;;13.82;8.75;;;;;;;24.06;60.60;100857.19;4841194;29;20054;-71
2021/06/16 04:33:33;;;;;;;15.65;8.75;;;;;;;24.01;60.54;100864.00;4841153;29;20425;-70
2021/06/16 04:36:05;;;;;;;17.10;8.65;;;;;;;24.18;59.84;100843.50;4842187;29;20061;-71
2021/06/16 04:43:04;;;;;;;16.15;9.05;;;;;;;23.95;61.02;100845.91;4840846;29;20050;-64
2021/06/16 04:45:31;;;;;;;14.93;9.00;;;;;;;23.74;61.30;100836.63;4840539;29;20058;-66
2021/06/16 04:47:59;;;;;;;16.35;9.23;;;;;;;23.45;62.43;100837.78;4841032;29;20058;-63
2021/06/16 04:50:26;;;;;;;13.13;9.40;;;;;;;23.91;61.01;100835.84;4902969;29;20065;-62
2021/06/16 04:57:18;;;;;;;15.23;9.13;;;;;;;23.68;62.18;100832.56;4842140;29;20057;-62
2021/06/16 04:59:46;;;;;;;23.73;9.60;;;;;;;23.69;62.08;100820.94;4904087;29;20065;-64
2021/06/16 05:02:14;;;;;;;18.00;10.30;;;;;;;23.64;62.08;100826.16;4840274;29;20529;-64
2021/06/16 05:04:41;;;;;;;17.88;10.13;;;;;;;23.71;62.09;100826.97;4840145;29;20058;-61
2021/06/16 05:07:09;;;;;;;16.23;10.27;;;;;;;23.62;62.58;100826.56;4840157;29;20078;-62
2021/06/16 05:14:13;;;;;;;15.93;9.55;;;;;;;24.08;60.90;100819.00;4841416;29;20509;-67
2021/06/16 05:16:41;;;;;;;24.95;10.32;;;;;;;23.96;61.29;100821.34;4840685;29;20379;-64
2021/06/16 05:19:21;;;;;;;15.50;10.75;;;;;;;24.25;60.25;100812.53;4841542;29;20053;-64
2021/06/16 05:21:49;;;;;;;17.23;9.80;;;;;;;24.92;58.32;100817.25;4840331;29;20064;-65
2021/06/16 05:24:18;;;;;;;18.83;9.75;;;;;;;24.90;58.43;100817.66;4841336;29;20058;-62
2021/06/16 05:26:45;;;;;;;22.73;10.52;;;;;;;24.49;59.18;100817.38;4841741;29;20080;-67
2021/06/16 05:29:13;;;;;;;13.48;9.18;;;;;;;24.51;59.51;100820.56;4840756;29;20062;-66
2021/06/16 05:31:41;;;;;;;15.48;9.23;;;;;;;24.93;58.08;100813.25;4840209;29;20061;-65
2021/06/16 05:34:12;;;;;;;19.52;12.25;;;;;;;25.25;57.29;100823.16;4841625;29;20061;-64
2021/06/16 05:36:40;;;;;;;14.38;9.82;;;;;;;25.22;57.31;100811.91;4841515;29;20050;-68
2021/06/16 05:39:08;;;;;;;19.27;10.93;;;;;;;25.22;56.98;100809.09;4840045;29;20065;-70
2021/06/16 05:41:35;;;;;;;15.93;10.15;;;;;;;24.99;57.45;100817.22;4840068;29;20061;-63
2021/06/16 05:44:03;;;;;;;17.40;9.60;;;;;;;25.11;56.91;100813.97;4840290;29;20057;-66
2021/06/16 05:46:31;;;;;;;15.10;9.35;;;;;;;24.75;57.11;100812.47;4839655;29;20046;-70
2021/06/16 05:48:58;;;;;;;16.17;8.98;;;;;;;24.73;57.44;100815.72;4839835;29;20058;-72
2021/06/16 05:51:26;;;;;;;17.08;8.68;;;;;;;24.70;57.12;100802.44;4839093;29;20498;-63
2021/06/16 05:53:53;;;;;;;19.02;9.65;;;;;;;24.81;56.30;100813.69;4840477;29;20080;-64
2021/06/16 05:56:21;;;;;;;13.90;8.25;;;;;;;24.75;56.32;100815.31;4838772;29;20057;-63
2021/06/16 05:58:49;;;;;;;15.95;8.10;;;;;;;24.98;55.67;100812.81;4838395;29;20057;-63
2021/06/16 06:01:17;;;;;;;15.18;8.38;;;;;;;25.14;55.40;100816.75;4840529;29;20058;-62
2021/06/16 06:03:45;;;;;;;13.93;8.23;;;;;;;24.99;55.17;100809.59;4838576;29;20061;-62
2021/06/16 06:06:12;;;;;;;15.02;8.13;;;;;;;25.00;55.14;100816.03;4838973;29;20054;-61
2021/06/16 06:08:39;;;;;;;17.77;8.80;;;;;;;25.15;55.02;100809.13;4839702;29;20383;-66
2021/06/16 06:11:07;;;;;;;14.52;7.45;;;;;;;25.25;54.70;100811.88;4839652;29;20042;-67
2021/06/16 06:13:34;;;;;;;14.70;7.50;;;;;;;25.09;55.26;100805.13;4837956;29;20061;-62
2021/06/16 06:16:02;;;;;;;17.17;7.80;;;;;;;25.03;55.33;100804.75;4839569;29;20053;-66
2021/06/16 06:18:34;;;;;;;16.10;7.70;;;;;;;25.36;54.54;100801.41;4840752;29;20062;-66
2021/06/16 06:21:02;;;;;;;14.93;7.82;;;;;;;25.35;54.17;100798.94;4838944;29;20053;-62
2021/06/16 06:23:30;;;;;;;13.73;7.85;;;;;;;25.38;54.14;100793.31;4839143;29;20054;-66
2021/06/16 06:25:59;;;;;;;11.65;7.07;;;;;;;25.43;54.27;100809.00;4839726;29;20506;-65
2021/06/16 06:28:27;;;;;;;14.77;8.20;;;;;;;25.00;55.10;100808.34;4839331;29;20409;-68
2021/06/16 06:30:55;;;;;;;15.60;7.28;;;;;;;25.16;55.14;100817.16;4838525;29;20299;-67
2021/06/16 06:33:22;;;;;;;16.73;7.68;;;;;;;25.35;54.27;100808.19;4840316;29;20150;-65
2021/06/16 06:35:50;;;;;;;17.38;7.70;;;;;;;25.45;54.09;100810.19;4839459;29;20050;-65
2021/06/16 06:38:17;;;;;;;16.05;7.78;;;;;;;25.56;53.98;100808.09;4837603;29;20046;-64
2021/06/16 06:45:13;;;;;;;15.60;7.68;;;;;;;25.77;53.08;100801.50;4934661;29;20036;-73
2021/06/16 06:47:41;;;;;;;14.23;7.18;;;;;;;25.64;54.33;100799.59;4916554;29;20059;-74
2021/06/16 06:50:14;;;;;;;17.67;6.88;;;;;;;25.99;53.54;100790.88;4917387;29;20051;-75
2021/06/16 06:52:44;;;;;;;14.15;7.35;;;;;;;26.18;52.01;100791.13;4934474;29;20055;-72
2021/06/16 06:59:39;;;;;;;16.20;8.50;;;;;;;26.07;52.62;100784.78;4934485;29;20043;-73
2021/06/16 07:02:07;;;;;;;14.85;8.02;;;;;;;25.96;52.98;100775.53;4934131;29;20482;-75
2021/06/16 07:04:35;;;;;;;13.63;7.00;;;;;;;26.27;51.87;100777.34;4935160;29;20518;-83
2021/06/16 07:07:03;;;;;;;13.38;8.15;;;;;;;26.33;51.29;100767.16;4935456;29;20063;-71
2021/06/16 07:14:10;;;;;;;13.75;6.22;;;;;;;26.65;50.31;100770.47;4933308;29;20052;-75
2021/06/16 07:16:38;;;;;;;18.70;6.03;;;;;;;26.71;50.66;100775.69;4903156;29;20048;-78
2021/06/16 07:19:05;;;;;;;15.30;7.53;;;;;;;26.80;50.43;100778.81;4934295;29;20056;-71
2021/06/16 07:21:33;;;;;;;14.63;5.95;;;;;;;26.89;49.72;100784.72;4934242;29;20044;-73
2021/06/16 07:24:00;;;;;;;11.30;6.10;;;;;;;26.91;49.20;100779.47;4932686;29;20519;-69
2021/06/16 07:30:56;;;;;;;13.93;6.35;;;;;;;27.13;49.84;100770.28;4933907;29;20035;-67
2021/06/16 07:33:24;;;;;;;12.55;5.63;;;;;;;26.84;49.66;100773.91;4930291;29;20467;-76
2021/06/16 07:35:51;;;;;;;16.30;5.25;;;;;;;26.87;49.58;100768.19;4934440;29;20067;-73
2021/06/16 07:38:19;;;;;;;11.85;6.15;;;;;;;27.27;48.89;100764.44;4932274;29;20377;-68
2021/06/16 07:45:15;;;;;;;11.63;5.30;;;;;;;28.35;45.78;100757.47;4836991;29;20049;-71
2021/06/16 07:47:43;;;;;;;16.13;5.57;;;;;;;28.46;45.50;100755.22;4821669;29;20058;-75
2021/06/16 07:50:11;;;;;;;12.25;4.88;;;;;;;28.46;45.57;100753.19;4840007;29;20379;-69
2021/06/16 07:52:39;;;;;;;13.65;5.43;;;;;;;28.57;44.93;100750.19;4841218;29;20065;-69
2021/06/16 07:59:35;;;;;;;12.10;5.30;;;;;;;28.72;44.26;100743.78;4842725;29;20050;-72
2021/06/16 08:02:04;;;;;;;12.82;5.53;;;;;;;29.00;43.20;100741.59;4842635;29;20068;-70
2021/06/16 08:04:32;;;;;;;12.38;4.68;;;;;;;29.04;42.90;100747.97;4826705;29;20058;-66
2021/06/16 08:07:00;;;;;;;8.43;4.65;;;;;;;29.16;43.16;100739.63;4826827;29;20054;-73
2021/06/16 08:09:27;;;;;;;11.07;4.72;;;;;;;29.31;42.26;100729.56;4844714;29;20061;-67
2021/06/16 08:16:32;;;;;;;15.93;4.78;;;;;;;29.30;42.16;100732.84;4841505;29;20054;-70
2021/06/16 08:18:59;;;;;;;13.45;5.18;;;;;;;29.43;41.63;100725.25;4825047;29;20054;-64
2021/06/16 08:21:27;;;;;;;17.75;5.07;;;;;;;29.21;42.49;100732.63;4841415;29;20373;-67
2021/06/16 08:23:54;;;;;;;12.15;4.60;;;;;;;29.46;41.99;100724.34;4840466;29;20054;-69
2021/06/16 08:26:22;;;;;;;12.65;4.63;;;;;;;29.58;41.55;100720.81;4824660;29;20054;-65
2021/06/16 08:28:49;;;;;;;14.60;4.30;;;;;;;29.40;41.54;100717.59;4840755;29;20058;-64
2021/06/16 08:31:19;;;;;;;13.80;3.97;;;;;;;29.60;41.33;100715.50;4840915;29;20061;-68
2021/06/16 08:33:47;;;;;;;12.82;4.00;;;;;;;29.68;40.88;100714.09;4809363;29;20062;-71
2021/06/16 08:36:14;;;;;;;11.23;4.32;;;;;;;29.67;41.00;100704.75;4841217;29;20054;-67
2021/06/16 08:38:42;;;;;;;15.48;4.53;;;;;;;29.86;40.58;100711.63;4840379;29;20050;-67
2021/06/16 08:41:18;;;;;;;12.68;4.18;;;;;;;30.00;40.12;100699.88;4840793;29;20046;-70
2021/06/16 08:43:47;;;;;;;15.80;3.83;;;;;;;29.73;40.59;100707.88;4827604;29;20099;-68
2021/06/16 08:46:15;;;;;;;24.33;4.43;;;;;;;29.81;40.12;100712.16;4839891;29;20065;-69
2021/06/16 08:48:44;;;;;;;10.48;3.83;;;;;;;29.67;40.32;100703.97;4842488;29;20066;-68
2021/06/16 08:51:15;;;;;;;10.68;4.30;;;;;;;29.67;40.42;100699.09;4837671;29;20054;-67
2021/06/16 08:53:44;;;;;;;9.90;3.45;;;;;;;29.64;40.25;100702.78;4840836;29;20511;-70
2021/06/16 08:56:12;;;;;;;6.37;3.57;;;;;;;29.56;40.68;100700.56;4838775;29;20065;-69
2021/06/16 08:58:41;;;;;;;10.88;4.00;;;;;;;29.74;40.50;100698.13;4822954;29;20050;-67
2021/06/16 09:01:10;;;;;;;12.95;3.88;;;;;;;29.73;40.75;100703.00;4838698;29;20063;-68
2021/06/16 09:03:37;;;;;;;10.80;4.05;;;;;;;29.93;40.54;100702.91;4838320;29;20038;-69
2021/06/16 09:06:10;;;;;;;7.50;3.38;;;;;;;30.23;39.51;100696.00;4885688;29;20050;-69
2021/06/16 09:08:56;;;;;;;11.60;4.38;;;;;;;29.86;39.95;100691.72;4839756;29;20061;-71
2021/06/16 09:11:25;;;;;;;9.73;3.83;;;;;;;29.98;40.26;100688.16;4839069;29;20056;-69
2021/06/16 09:14:19;;;;;;;8.40;5.18;;;;;;;29.98;39.90;100684.50;4841353;29;20065;-70
2021/06/16 09:16:47;;;;;;;11.65;4.00;;;;;;;29.94;39.85;100678.94;4838812;29;20058;-71
2021/06/16 09:19:25;;;;;;;9.85;4.10;;;;;;;29.91;40.33;100673.34;4840015;29;20045;-69
2021/06/16 09:21:59;;;;;;;13.77;3.90;;;;;;;30.19;39.13;100681.91;4840064;29;20058;-70
2021/06/16 09:24:43;;;;;;;7.63;3.30;;;;;;;30.35;38.81;100673.38;4841037;29;20054;-71
2021/06/16 09:27:39;;;;;;;10.43;6.00;;;;;;;30.48;38.65;100687.59;4838553;29;20053;-70
2021/06/16 09:30:19;;;;;;;11.32;4.57;;;;;;;30.60;38.89;100673.44;4838844;29;20053;-70
2021/06/16 09:32:53;;;;;;;10.85;4.57;;;;;;;30.49;38.12;100672.16;4838273;29;20050;-71
2021/06/16 09:35:22;;;;;;;8.00;4.88;;;;;;;30.58;38.10;100669.47;4839645;29;20053;-68
2021/06/16 09:37:50;;;;;;;12.13;5.72;;;;;;;30.36;37.65;100668.47;4839991;29;20046;-66
2021/06/16 09:40:35;;;;;;;9.43;3.60;;;;;;;30.08;38.42;100658.66;4902758;29;20057;-69
2021/06/16 09:43:06;;;;;;;8.77;3.85;;;;;;;30.10;38.39;100653.34;4839468;29;20054;-66
2021/06/16 09:45:35;;;;;;;8.77;3.63;;;;;;;29.80;39.66;100657.38;4838258;29;20513;-68
2021/06/16 09:48:22;;;;;;;10.82;3.85;;;;;;;29.76;38.85;100664.41;4839409;29;20054;-70
2021/06/16 09:50:52;;;;;;;8.25;3.28;;;;;;;29.67;38.93;100665.00;4839710;29;20061;-68
2021/06/16 09:53:20;;;;;;;9.40;4.00;;;;;;;29.81;39.18;100664.66;4839781;29;20513;-68
2021/06/16 09:55:47;;;;;;;10.00;3.95;;;;;;;29.90;38.97;100661.19;4838366;29;20054;-67
2021/06/16 09:58:17;;;;;;;10.45;3.47;;;;;;;29.73;38.97;100656.75;4840010;29;20069;-70
2021/06/16 10:00:49;;;;;;;7.72;3.72;;;;;;;29.64;38.96;100659.44;4900569;29;20065;-67
2021/06/16 10:03:22;;;;;;;7.22;3.35;;;;;;;29.72;39.66;100660.84;4838885;29;20061;-66
2021/06/16 10:06:08;;;;;;;10.15;4.10;;;;;;;29.83;39.37;100664.22;4840954;29;20065;-67
2021/06/16 10:08:38;;;;;;;6.30;3.88;;;;;;;30.05;38.79;100665.25;4839339;29;20058;-72
2021/06/16 10:11:08;;;;;;;8.60;3.90;;;;;;;30.29;38.29;100660.94;4839929;29;20050;-68
2021/06/16 10:13:37;;;;;;;8.52;4.00;;;;;;;30.29;38.44;100666.63;4839129;29;20396;-72
2021/06/16 10:16:05;;;;;;;12.68;3.90;;;;;;;29.96;38.51;100656.56;4902916;29;20061;-71
2021/06/16 10:18:34;;;;;;;9.40;3.60;;;;;;;30.06;38.34;100649.78;4839529;29;20065;-73
2021/06/16 10:21:01;;;;;;;8.68;3.90;;;;;;;30.02;38.84;100648.28;4837487;29;20046;-70
2021/06/16 10:23:29;;;;;;;8.70;3.83;;;;;;;30.06;38.42;100651.84;4840228;29;20061;-68
2021/06/16 10:26:08;;;;;;;5.50;3.30;;;;;;;29.99;37.20;100649.97;4839149;29;20061;-71
2021/06/16 10:28:52;;;;;;;9.77;3.35;;;;;;;29.92;37.98;100653.00;4837669;29;20054;-69
2021/06/16 10:31:20;;;;;;;8.57;3.22;;;;;;;29.92;37.75;100649.38;4901513;29;20045;-70
2021/06/16 10:33:56;;;;;;;8.65;3.40;;;;;;;30.37;37.19;100638.81;4901721;29;20147;-72
2021/06/16 10:36:24;;;;;;;9.43;3.50;;;;;;;30.34;37.19;100642.53;4901415;29;20066;-73
2021/06/16 10:38:57;;;;;;;7.75;3.95;;;;;;;30.24;37.42;100635.91;4900823;29;20058;-70
2021/06/16 10:41:37;;;;;;;8.45;3.80;;;;;;;30.28;37.43;100638.66;4837227;29;20058;-70
2021/06/16 10:44:16;;;;;;;5.78;3.47;;;;;;;30.30;36.83;100622.72;4838100;29;20425;-69
2021/06/16 10:47:00;;;;;;;8.05;3.80;;;;;;;29.81;37.73;100629.78;4838918;29;20077;-68
2021/06/16 10:49:57;;;;;;;7.10;3.63;;;;;;;29.81;38.17;100624.88;4840088;29;20058;-69
2021/06/16 10:52:26;;;;;;;6.53;3.50;;;;;;;29.85;38.52;100622.75;4878677;29;20056;-69
2021/06/16 10:54:54;;;;;;;;;;;;;;;29.75;38.66;100625.88;4895479;29;20397;-65
2021/06/16 11:01:50;;;;;;;9.07;3.75;;;;;;;30.01;38.12;100610.56;4894876;29;20059;-65
2021/06/16 11:04:28;;;;;;;13.68;6.70;;;;;;;30.62;36.86;100621.78;4894849;29;20169;-68
2021/06/16 11:06:56;;;;;;;20.17;6.68;;;;;;;30.33;37.27;100616.16;4894843;29;20517;-66
2021/06/16 11:09:54;;;;;;;19.25;7.80;;;;;;;30.39;36.63;100614.34;4894527;29;20060;-73
2021/06/16 11:16:44;;;;;;;12.57;3.88;;;;;;;30.78;35.15;100601.78;4824002;29;20570;-70
2021/06/16 11:19:26;;;;;;;11.10;3.38;;;;;;;30.84;34.83;100583.72;4838656;29;20450;-70
2021/06/16 11:21:55;;;;;;;11.30;3.15;;;;;;;30.78;35.04;100591.22;4838971;29;20076;-66
2021/06/16 11:24:43;;;;;;;;;;;;;;;30.76;35.77;100590.06;4838914;29;20513;-67
2021/06/16 11:27:10;;;;;;;8.27;3.80;;;;;;;31.10;35.50;100589.41;4838799;29;20270;-70
2021/06/16 11:30:08;;;;;;;8.57;3.10;;;;;;;31.20;34.82;100582.56;4778890;29;20063;-74
2021/06/16 11:32:35;;;;;;;7.53;3.20;;;;;;;31.47;34.19;100588.59;4766686;29;20059;-70
2021/06/16 11:35:03;;;;;;;6.60;3.38;;;;;;;31.26;34.93;100584.38;4781215;29;20523;-70
2021/06/16 11:38:07;;;;;;;10.18;3.22;;;;;;;31.20;35.51;100583.38;4781558;30;20125;-73
2021/06/16 11:40:34;;;;;;;7.07;3.40;;;;;;;31.48;35.18;100582.44;4820540;29;20054;-68
2021/06/16 11:47:33;;;;;;;8.30;3.42;;;;;;;31.41;34.60;100570.50;4820270;29;20050;-72
2021/06/16 11:50:02;;;;;;;5.95;3.15;;;;;;;31.37;34.56;100564.13;4801660;29;20066;-67
2021/06/16 11:52:29;;;;;;;9.95;4.18;;;;;;;30.99;34.45;100567.00;4799538;29;20047;-65
2021/06/16 11:54:57;;;;;;;9.90;3.65;;;;;;;31.00;34.57;100571.44;4798834;29;20066;-66
2021/06/16 11:57:28;;;;;;;8.05;3.63;;;;;;;30.73;34.97;100563.34;4784497;29;20067;-71
2021/06/16 11:59:56;;;;;;;8.90;3.30;;;;;;;30.50;35.67;100562.84;4784018;29;20116;-72
2021/06/16 12:02:27;;;;;;;9.70;3.17;;;;;;;30.70;35.48;100569.16;4799317;29;20520;-70
2021/06/16 12:05:04;;;;;;;7.68;3.30;;;;;;;30.99;34.82;100566.19;4799404;29;20055;-69
2021/06/16 12:07:39;;;;;;;8.55;3.30;;;;;;;31.20;33.76;100562.66;4799001;29;20181;-68
2021/06/16 12:10:20;;;;;;;8.73;2.92;;;;;;;31.43;33.12;100553.75;4798839;29;20059;-67
2021/06/16 12:12:55;;;;;;;8.98;2.78;;;;;;;31.67;32.95;100560.63;4799233;29;20549;-69
2021/06/16 12:15:25;;;;;;;5.28;2.88;;;;;;;31.64;32.23;100567.25;4829333;29;20062;-70
2021/06/16 12:17:58;;;;;;;4.57;2.50;;;;;;;31.80;31.17;100555.69;4837509;29;20058;-66
2021/06/16 12:20:27;;;;;;;7.10;2.75;;;;;;;31.63;32.24;100560.75;4839116;29;20062;-65
2021/06/16 12:22:55;;;;;;;;;;;;;;;31.65;32.25;100555.41;4838428;29;20469;-65
2021/06/16 12:25:32;;;;;;;7.25;2.80;;;;;;;31.58;32.86;100555.66;4837563;29;20364;-67
2021/06/16 12:28:01;;;;;;;6.20;2.92;;;;;;;31.85;32.40;100550.16;4836322;29;20046;-68
2021/06/16 12:30:32;;;;;;;6.97;3.00;;;;;;;32.10;32.48;100549.28;4839364;29;20464;-72
2021/06/16 12:33:13;;;;;;;9.00;3.05;;;;;;;32.53;31.77;100543.56;4836384;29;20077;-72
2021/06/16 12:35:53;;;;;;;8.50;2.88;;;;;;;32.43;31.87;100544.75;4838100;29;20406;-70
2021/06/16 12:38:34;;;;;;;;;;;;;;;32.16;32.23;100543.78;4840160;29;20061;-68
2021/06/16 12:41:01;;;;;;;9.50;2.90;;;;;;;32.28;32.38;100546.56;4840798;29;19939;-69
2021/06/16 12:43:28;;;;;;;10.13;3.00;;;;;;;32.78;31.57;100542.53;4840632;29;20058;-70
2021/06/16 12:45:56;;;;;;;6.57;2.85;;;;;;;32.87;31.24;100522.63;4841121;29;20058;-70
2021/06/16 12:48:27;;;;;;;9.40;2.80;;;;;;;32.75;31.45;100526.38;4840583;29;20050;-68
2021/06/16 12:50:59;;;;;;;9.00;3.25;;;;;;;32.37;31.95;100531.56;4840523;29;20054;-68
2021/06/16 12:53:27;;;;;;;7.07;3.00;;;;;;;32.42;31.56;100531.78;4840536;29;20058;-72
2021/06/16 12:55:58;;;;;;;6.28;2.90;;;;;;;32.44;31.58;100517.06;4838882;29;20065;-73
2021/06/16 12:58:25;;;;;;;7.57;2.72;;;;;;;32.44;31.05;100515.00;4840863;29;20160;-75
2021/06/16 13:01:00;;;;;;;5.70;2.45;;;;;;;32.27;30.89;100513.63;4903775;29;20054;-71
2021/06/16 13:03:29;;;;;;;21.25;3.15;;;;;;;32.43;30.37;100506.91;4839874;29;20102;-68
2021/06/16 13:05:58;;;;;;;11.70;2.70;;;;;;;32.59;30.56;100496.03;4839863;29;20074;-67
2021/06/16 13:08:39;;;;;;;8.30;2.33;;;;;;;32.78;29.49;100509.09;4840339;29;20053;-66